createdAt,value
2023-03-17T00:00:10.343Z,30.66
2023-03-17T00:01:10.331Z,28.83
2023-03-17T00:02:10.380Z,27.33
2023-03-17T00:03:10.347Z,29.64
2023-03-17T00:04:10.325Z,28.07
2023-03-17T00:05:10.324Z,31.56
2023-03-17T00:06:10.323Z,28.55
2023-03-17T00:07:10.329Z,28.01
2023-03-17T00:08:10.316Z,26.02
2023-03-17T00:09:10.311Z,30.84
2023-03-17T00:10:10.319Z,25.90
2023-03-17T00:11:10.320Z,28.91
2023-03-17T00:12:10.316Z,28.37
2023-03-17T00:13:10.300Z,26.66
2023-03-17T00:14:10.331Z,28.50
2023-03-17T00:15:10.306Z,27.22
2023-03-17T00:16:10.397Z,26.44
2023-03-17T00:17:10.338Z,29.20
2023-03-17T00:18:10.312Z,33.10
2023-03-17T00:19:10.327Z,26.20
2023-03-17T00:20:10.313Z,25.00
2023-03-17T00:21:10.314Z,29.82
2023-03-17T00:22:10.310Z,26.68
2023-03-17T00:23:10.300Z,31.25
2023-03-17T00:24:10.296Z,28.38
2023-03-17T00:25:10.302Z,25.88
2023-03-17T00:26:10.302Z,29.25
2023-03-17T00:27:10.303Z,25.05
2023-03-17T00:28:10.294Z,27.37
2023-03-17T00:29:10.286Z,28.62
2023-03-17T00:30:10.297Z,26.89
2023-03-17T00:31:10.345Z,29.16
2023-03-17T00:32:10.275Z,27.93
2023-03-17T00:33:10.264Z,31.41
2023-03-17T00:34:10.283Z,34.05
2023-03-17T00:35:10.273Z,30.37
2023-03-17T00:36:10.251Z,31.25
2023-03-17T00:37:10.252Z,27.70
2023-03-17T00:38:10.243Z,27.86
2023-03-17T00:39:10.240Z,28.73
2023-03-17T00:40:10.227Z,29.14
2023-03-17T00:41:10.222Z,30.22
2023-03-17T00:42:10.233Z,28.56
2023-03-17T00:43:10.221Z,31.29
2023-03-17T00:44:10.230Z,29.17
2023-03-17T00:45:10.217Z,30.92
2023-03-17T00:46:10.256Z,26.29
2023-03-17T00:47:10.245Z,32.01
2023-03-17T00:48:10.213Z,27.50
2023-03-17T00:49:10.230Z,32.90
2023-03-17T00:50:10.204Z,32.18
2023-03-17T00:51:10.221Z,27.00
2023-03-17T00:52:10.216Z,28.51
2023-03-17T00:53:10.280Z,27.60
2023-03-17T00:54:10.208Z,30.79
2023-03-17T00:55:10.235Z,29.00
2023-03-17T00:56:10.214Z,28.17
2023-03-17T00:57:10.206Z,29.45
2023-03-17T00:58:10.214Z,32.71
2023-03-17T00:59:10.206Z,28.53
2023-03-17T01:00:10.196Z,26.25
2023-03-17T01:01:10.200Z,28.84
2023-03-17T01:02:10.246Z,29.74
2023-03-17T01:03:10.193Z,32.00
2023-03-17T01:04:10.178Z,33.41
2023-03-17T01:05:10.188Z,27.00
2023-03-17T01:06:10.178Z,32.41
2023-03-17T01:07:10.177Z,31.87
2023-03-17T01:08:10.218Z,32.87
2023-03-17T01:09:10.186Z,27.87
2023-03-17T01:10:10.172Z,30.63
2023-03-17T01:11:10.170Z,29.71
2023-03-17T01:12:10.154Z,29.65
2023-03-17T01:13:10.158Z,27.16
2023-03-17T01:14:10.154Z,30.20
2023-03-17T01:15:10.154Z,26.09
2023-03-17T01:16:10.206Z,31.21
2023-03-17T01:17:10.150Z,30.38
2023-03-17T01:18:10.146Z,31.15
2023-03-17T01:19:10.149Z,27.61
2023-03-17T01:20:10.157Z,30.84
2023-03-17T01:21:10.142Z,29.07
2023-03-17T01:22:10.139Z,32.20
2023-03-17T01:23:10.138Z,30.09
2023-03-17T01:24:10.135Z,33.08
2023-03-17T01:25:10.148Z,29.99
2023-03-17T01:26:10.132Z,28.50
2023-03-17T01:27:10.133Z,29.27
2023-03-17T01:28:10.112Z,26.05
2023-03-17T01:29:10.122Z,29.55
2023-03-17T01:30:10.113Z,31.22
2023-03-17T01:31:10.149Z,31.86
2023-03-17T01:32:10.095Z,34.76
2023-03-17T01:33:10.111Z,29.76
2023-03-17T01:34:10.105Z,32.69
2023-03-17T01:35:10.116Z,32.33
2023-03-17T01:36:10.147Z,26.16
2023-03-17T01:37:10.092Z,31.34
2023-03-17T01:38:10.096Z,31.97
2023-03-17T01:39:10.087Z,31.21
2023-03-17T01:40:10.087Z,31.06
2023-03-17T01:41:10.087Z,29.44
2023-03-17T01:42:10.092Z,31.27
2023-03-17T01:43:10.092Z,25.00
2023-03-17T01:44:10.095Z,33.73
2023-03-17T01:45:10.101Z,29.69
2023-03-17T01:46:10.149Z,31.99
2023-03-17T01:47:10.082Z,32.03
2023-03-17T01:48:10.096Z,32.27
2023-03-17T01:49:10.076Z,32.25
2023-03-17T01:50:10.081Z,32.74
2023-03-17T01:51:10.072Z,33.59
2023-03-17T01:52:10.092Z,32.02
2023-03-17T01:53:10.088Z,33.37
2023-03-17T01:54:10.061Z,30.58
2023-03-17T01:55:10.055Z,26.84
2023-03-17T01:56:10.047Z,33.56
2023-03-17T01:57:10.055Z,31.56
2023-03-17T01:58:10.027Z,26.71
2023-03-17T01:59:10.033Z,30.39
2023-03-17T02:00:10.027Z,32.33
2023-03-17T02:01:10.039Z,28.31
2023-03-17T02:02:10.004Z,28.15
2023-03-17T02:03:10.006Z,31.53
2023-03-17T02:04:10.067Z,28.22
2023-03-17T02:05:09.994Z,29.46
2023-03-17T02:06:10.001Z,27.15
2023-03-17T02:07:09.980Z,29.58
2023-03-17T02:08:09.986Z,28.40
2023-03-17T02:09:09.980Z,25.15
2023-03-17T02:10:09.968Z,28.72
2023-03-17T02:11:09.972Z,27.90
2023-03-17T02:12:09.961Z,29.45
2023-03-17T02:13:09.953Z,30.05
2023-03-17T02:14:09.948Z,27.21
2023-03-17T02:15:09.949Z,29.48
2023-03-17T02:16:09.942Z,30.93
2023-03-17T02:17:09.930Z,29.31
2023-03-17T02:18:09.938Z,32.32
2023-03-17T02:19:09.929Z,30.94
2023-03-17T02:20:09.916Z,33.10
2023-03-17T02:21:09.919Z,29.74
2023-03-17T02:22:09.912Z,34.24
2023-03-17T02:23:09.897Z,33.15
2023-03-17T02:24:09.896Z,29.31
2023-03-17T02:25:09.878Z,31.53
2023-03-17T02:26:09.875Z,29.53
2023-03-17T02:27:09.855Z,29.29
2023-03-17T02:28:09.861Z,30.08
2023-03-17T02:29:09.851Z,28.38
2023-03-17T02:30:09.828Z,30.57
2023-03-17T02:31:09.822Z,30.74
2023-03-17T02:32:09.821Z,29.98
2023-03-17T02:33:09.897Z,30.94
2023-03-17T02:34:09.806Z,29.93
2023-03-17T02:35:09.798Z,33.03
2023-03-17T02:36:09.866Z,32.11
2023-03-17T02:37:09.788Z,30.40
2023-03-17T02:38:09.786Z,31.55
2023-03-17T02:39:09.782Z,29.96
2023-03-17T02:40:09.772Z,26.74
2023-03-17T02:41:09.799Z,28.83
2023-03-17T02:42:09.765Z,27.55
2023-03-17T02:43:09.786Z,28.10
2023-03-17T02:44:09.790Z,25.58
2023-03-17T02:45:09.774Z,30.45
2023-03-17T02:46:09.800Z,32.00
2023-03-17T02:47:09.743Z,30.48
2023-03-17T02:48:09.744Z,30.04
2023-03-17T02:49:09.741Z,28.78
2023-03-17T02:50:09.727Z,28.73
2023-03-17T02:51:09.734Z,29.29
2023-03-17T02:52:09.725Z,32.55
2023-03-17T02:53:09.727Z,30.43
2023-03-17T02:54:09.729Z,28.07
2023-03-17T02:55:09.714Z,28.92
2023-03-17T02:56:09.720Z,31.97
2023-03-17T02:57:09.768Z,30.78
2023-03-17T02:58:09.721Z,26.23
2023-03-17T02:59:09.767Z,29.41
2023-03-17T03:00:09.711Z,30.05
2023-03-17T03:01:09.804Z,29.37
2023-03-17T03:02:09.761Z,27.01
2023-03-17T03:03:09.713Z,30.50
2023-03-17T03:04:09.729Z,32.47
2023-03-17T03:05:09.736Z,32.90
2023-03-17T03:06:09.713Z,33.08
2023-03-17T03:07:09.709Z,33.34
2023-03-17T03:08:09.705Z,30.26
2023-03-17T03:09:09.704Z,31.86
2023-03-17T03:10:09.710Z,33.48
2023-03-17T03:11:09.703Z,28.65
2023-03-17T03:12:09.714Z,31.78
2023-03-17T03:13:09.684Z,31.95
2023-03-17T03:14:09.688Z,32.68
2023-03-17T03:15:09.679Z,32.80
2023-03-17T03:16:09.719Z,31.20
2023-03-17T03:17:09.683Z,30.03
2023-03-17T03:18:09.664Z,31.48
2023-03-17T03:19:09.662Z,31.31
2023-03-17T03:20:09.665Z,27.87
2023-03-17T03:21:09.673Z,28.72
2023-03-17T03:22:09.647Z,28.16
2023-03-17T03:23:09.643Z,31.76
2023-03-17T03:24:09.634Z,30.69
2023-03-17T03:25:09.633Z,32.25
2023-03-17T03:26:09.620Z,30.17
2023-03-17T03:27:09.618Z,28.78
2023-03-17T03:28:09.609Z,27.04
2023-03-17T03:29:09.604Z,31.54
2023-03-17T03:30:09.609Z,30.02
2023-03-17T03:31:09.650Z,29.59
2023-03-17T03:32:09.602Z,30.17
2023-03-17T03:33:09.597Z,27.77
2023-03-17T03:34:09.607Z,31.06
2023-03-17T03:35:09.584Z,31.88
2023-03-17T03:36:09.607Z,28.01
2023-03-17T03:37:09.565Z,30.81
2023-03-17T03:38:09.566Z,27.95
2023-03-17T03:39:09.573Z,28.22
2023-03-17T03:40:09.561Z,28.21
2023-03-17T03:41:09.555Z,28.51
2023-03-17T03:42:09.552Z,28.60
2023-03-17T03:43:21.789Z,30.15
2023-03-17T03:44:10.571Z,28.57
2023-03-17T03:45:09.556Z,28.97
2023-03-17T03:46:09.618Z,28.99
2023-03-17T03:47:09.562Z,29.57
2023-03-17T03:48:09.568Z,30.38
2023-03-17T03:49:09.565Z,33.42
2023-03-17T03:50:09.568Z,27.45
2023-03-17T03:51:09.558Z,28.66
2023-03-17T03:52:09.560Z,28.64
2023-03-17T03:53:09.552Z,27.68
2023-03-17T03:54:09.559Z,34.40
2023-03-17T03:55:09.564Z,31.79
2023-03-17T03:56:09.576Z,30.48
2023-03-17T03:57:09.556Z,31.16
2023-03-17T03:58:09.557Z,29.16
2023-03-17T03:59:09.552Z,30.27
2023-03-17T04:00:09.562Z,29.97
2023-03-17T04:01:09.558Z,25.79
2023-03-17T04:02:09.832Z,30.49
2023-03-17T04:03:09.590Z,30.74
2023-03-17T04:04:09.555Z,31.22
2023-03-17T04:05:09.559Z,29.20
2023-03-17T04:06:09.541Z,32.66
2023-03-17T04:07:09.526Z,28.40
2023-03-17T04:08:09.528Z,29.75
2023-03-17T04:09:09.531Z,25.22
2023-03-17T04:10:09.548Z,28.86
2023-03-17T04:11:09.536Z,31.30
2023-03-17T04:12:09.538Z,31.74
2023-03-17T04:13:09.524Z,31.25
2023-03-17T04:14:09.533Z,30.67
2023-03-17T04:15:09.537Z,26.74
2023-03-17T04:16:09.591Z,32.87
2023-03-17T04:17:09.514Z,31.54
2023-03-17T04:18:09.529Z,31.84
2023-03-17T04:19:09.578Z,28.05
2023-03-17T04:20:09.519Z,27.60
2023-03-17T04:21:09.516Z,30.81
2023-03-17T04:22:09.523Z,31.70
2023-03-17T04:23:09.509Z,29.82
2023-03-17T04:24:09.513Z,29.54
2023-03-17T04:25:09.518Z,26.98
2023-03-17T04:26:09.531Z,27.06
2023-03-17T04:27:09.530Z,26.58
2023-03-17T04:28:09.537Z,30.50
2023-03-17T04:29:09.533Z,29.69
2023-03-17T04:30:09.537Z,26.05
2023-03-17T04:31:09.622Z,31.21
2023-03-17T04:32:09.557Z,29.30
2023-03-17T04:33:09.584Z,25.91
2023-03-17T04:34:09.567Z,31.21
2023-03-17T04:35:09.539Z,29.79
2023-03-17T04:36:09.595Z,31.19
2023-03-17T04:37:09.543Z,30.96
2023-03-17T04:38:09.549Z,28.34
2023-03-17T04:39:09.548Z,32.68
2023-03-17T04:40:09.551Z,29.34
2023-03-17T04:41:09.552Z,30.40
2023-03-17T04:42:09.552Z,29.25
2023-03-17T04:43:09.565Z,32.75
2023-03-17T04:44:09.552Z,29.54
2023-03-17T04:45:09.559Z,25.45
2023-03-17T04:46:09.574Z,28.12
2023-03-17T04:47:09.538Z,27.09
2023-03-17T04:48:09.548Z,27.46
2023-03-17T04:49:09.556Z,29.65
2023-03-17T04:50:09.564Z,28.75
2023-03-17T04:51:11.663Z,28.06
2023-03-17T04:52:09.543Z,33.31
2023-03-17T04:53:09.536Z,28.71
2023-03-17T04:54:09.538Z,27.99
2023-03-17T04:55:09.586Z,31.25
2023-03-17T04:56:09.553Z,30.07
2023-03-17T04:57:09.549Z,25.00
2023-03-17T04:58:11.767Z,30.21
2023-03-17T04:59:09.565Z,30.24
2023-03-17T05:00:09.576Z,30.60
2023-03-17T05:01:09.627Z,31.23
2023-03-17T05:02:09.639Z,31.43
2023-03-17T05:03:25.791Z,32.39
2023-03-17T05:04:12.774Z,30.52
2023-03-17T05:05:10.586Z,30.62
2023-03-17T05:06:09.599Z,31.44
2023-03-17T05:07:09.605Z,32.35
2023-03-17T05:08:09.595Z,28.53
2023-03-17T05:09:09.592Z,32.33
2023-03-17T05:10:09.621Z,30.30
2023-03-17T05:11:09.615Z,31.61
2023-03-17T05:12:09.608Z,31.26
2023-03-17T05:13:09.606Z,30.67
2023-03-17T05:14:09.610Z,30.99
2023-03-17T05:15:09.632Z,30.65
2023-03-17T05:16:09.701Z,31.79
2023-03-17T05:17:09.616Z,31.08
2023-03-17T05:18:09.605Z,32.36
2023-03-17T05:19:09.612Z,30.33
2023-03-17T05:20:09.610Z,29.54
2023-03-17T05:21:09.624Z,27.19
2023-03-17T05:22:09.774Z,27.49
2023-03-17T05:23:09.611Z,29.41
2023-03-17T05:24:09.622Z,29.79
2023-03-17T05:25:09.621Z,27.64
2023-03-17T05:26:09.621Z,31.02
2023-03-17T05:27:09.768Z,29.30
2023-03-17T05:28:09.613Z,32.19
2023-03-17T05:29:09.605Z,31.94
2023-03-17T05:30:09.613Z,31.93
2023-03-17T05:31:11.181Z,27.25
2023-03-17T05:32:09.712Z,31.06
2023-03-17T05:33:09.625Z,30.63
2023-03-17T05:34:09.633Z,30.14
2023-03-17T05:35:09.606Z,27.11
2023-03-17T05:36:09.691Z,29.08
2023-03-17T05:37:09.673Z,28.76
2023-03-17T05:38:09.608Z,28.47
2023-03-17T05:39:09.612Z,31.63
2023-03-17T05:40:09.619Z,26.67
2023-03-17T05:41:09.610Z,27.01
2023-03-17T05:42:09.694Z,26.84
2023-03-17T05:43:09.611Z,28.07
2023-03-17T05:44:09.617Z,27.74
2023-03-17T05:45:09.612Z,27.30
2023-03-17T05:46:09.648Z,25.00
2023-03-17T05:47:09.636Z,28.98
2023-03-17T05:48:09.645Z,31.67
2023-03-17T05:49:09.651Z,30.91
2023-03-17T05:50:09.650Z,29.68
2023-03-17T05:51:09.651Z,26.39
2023-03-17T05:52:09.694Z,30.24
2023-03-17T05:53:09.652Z,31.53
2023-03-17T05:54:09.662Z,30.21
2023-03-17T05:55:09.662Z,28.93
2023-03-17T05:56:09.678Z,29.14
2023-03-17T05:57:09.668Z,28.52
2023-03-17T05:58:09.678Z,29.04
2023-03-17T05:59:09.662Z,31.21
2023-03-17T06:00:11.707Z,26.30
2023-03-17T06:01:09.701Z,31.08
2023-03-17T06:02:09.745Z,29.78
2023-03-17T06:03:09.705Z,30.70
2023-03-17T06:04:09.677Z,28.99
2023-03-17T06:05:09.705Z,30.25
2023-03-17T06:06:09.691Z,27.87
2023-03-17T06:07:09.683Z,27.54
2023-03-17T06:08:09.695Z,30.19
2023-03-17T06:09:09.694Z,31.06
2023-03-17T06:10:09.687Z,32.34
2023-03-17T06:11:09.689Z,33.66
2023-03-17T06:12:09.697Z,31.48
2023-03-17T06:13:09.719Z,32.40
2023-03-17T06:14:09.691Z,32.60
2023-03-17T06:15:09.704Z,32.08
2023-03-17T06:16:09.805Z,30.22
2023-03-17T06:17:09.709Z,30.93
2023-03-17T06:18:09.708Z,31.66
2023-03-17T06:19:09.702Z,31.30
2023-03-17T06:20:09.714Z,29.11
2023-03-17T06:21:09.700Z,30.11
2023-03-17T06:22:09.715Z,31.01
2023-03-17T06:23:09.773Z,29.63
2023-03-17T06:24:09.752Z,29.99
2023-03-17T06:25:09.725Z,29.04
2023-03-17T06:26:09.746Z,28.97
2023-03-17T06:27:09.753Z,30.83
2023-03-17T06:28:09.798Z,32.05
2023-03-17T06:29:09.794Z,32.22
2023-03-17T06:30:09.777Z,32.47
2023-03-17T06:31:09.814Z,33.09
2023-03-17T06:32:20.444Z,32.14
2023-03-17T06:33:10.838Z,32.38
2023-03-17T06:34:09.784Z,32.88
2023-03-17T06:35:09.784Z,32.47
2023-03-17T06:36:09.798Z,32.45
2023-03-17T06:37:09.770Z,32.88
2023-03-17T06:38:09.795Z,32.70
2023-03-17T06:39:09.786Z,29.29
2023-03-17T06:40:09.771Z,26.27
2023-03-17T06:41:09.766Z,27.51
2023-03-17T06:42:09.826Z,25.00
2023-03-17T06:43:09.759Z,22.58
2023-03-17T06:44:09.770Z,0.00
2023-03-17T06:45:09.771Z,0.00
2023-03-17T06:46:09.802Z,0.00
2023-03-17T06:47:09.791Z,0.00
2023-03-17T06:54:09.934Z,0.00
2023-03-17T06:57:09.975Z,0.00
2023-03-17T07:36:10.645Z,60.32
2023-03-17T08:28:11.129Z,152.41
2023-03-17T08:29:11.106Z,145.40
2023-03-17T08:30:11.111Z,146.82
2023-03-17T08:31:12.582Z,152.39
2023-03-17T08:32:11.135Z,150.46
2023-03-17T08:33:11.232Z,150.23
2023-03-17T08:34:11.138Z,156.24
2023-03-17T08:35:11.141Z,166.21
2023-03-17T08:36:11.151Z,182.26
2023-03-17T08:37:11.643Z,196.75
2023-03-17T08:38:11.176Z,211.72
2023-03-17T08:39:11.182Z,225.24
2023-03-17T08:40:11.188Z,211.23
2023-03-17T08:42:11.189Z,191.08
2023-03-17T08:43:11.194Z,196.08
2023-03-17T08:44:11.197Z,191.91
2023-03-17T08:45:11.195Z,187.44
2023-03-17T08:46:11.224Z,189.10
2023-03-17T08:47:11.239Z,185.25
2023-03-17T08:48:11.244Z,190.22
2023-03-17T08:49:11.243Z,184.55
2023-03-17T08:50:11.234Z,176.73
2023-03-17T08:51:11.239Z,171.27
2023-03-17T08:52:11.234Z,158.23
2023-03-17T08:53:11.240Z,148.41
2023-03-17T08:54:11.782Z,150.50
2023-03-17T08:55:11.243Z,149.66
2023-03-17T08:56:11.310Z,148.86
2023-03-17T08:57:11.252Z,134.74
2023-03-17T12:06:10.004Z,223.52
2023-03-17T12:07:09.926Z,222.17
2023-03-17T12:08:09.913Z,221.95
2023-03-17T12:09:09.873Z,220.49
2023-03-17T12:10:09.911Z,221.24
2023-03-17T12:11:09.916Z,224.16
2023-03-17T12:12:09.842Z,225.65
2023-03-17T12:13:09.803Z,227.88
2023-03-17T12:14:09.824Z,228.85
2023-03-17T12:15:09.756Z,231.06
2023-03-17T12:17:09.711Z,234.30
2023-03-17T12:20:09.657Z,241.43
2023-03-17T12:21:09.605Z,242.32
2023-03-17T12:23:09.586Z,237.72
2023-03-17T12:24:09.561Z,237.15
2023-03-17T12:25:09.532Z,235.83
2023-03-17T12:26:09.529Z,232.74
2023-03-17T12:27:09.505Z,233.46
2023-03-17T12:28:09.471Z,232.57
2023-03-17T12:29:09.501Z,233.84
2023-03-17T12:30:09.578Z,245.60
2023-03-17T12:31:09.439Z,250.00
2023-03-17T12:32:09.420Z,250.00
2023-03-17T12:33:09.417Z,250.16
2023-03-17T12:34:09.340Z,250.00
2023-03-17T12:35:09.323Z,250.00
2023-03-17T12:36:09.328Z,249.62
2023-03-17T12:37:09.256Z,250.00
2023-03-17T12:38:09.250Z,250.00
2023-03-17T12:39:09.289Z,249.86
2023-03-17T12:40:09.185Z,249.76
2023-03-17T12:41:09.169Z,250.03
2023-03-17T12:42:09.173Z,249.66
2023-03-17T12:43:09.132Z,249.50
2023-03-17T12:44:09.127Z,249.77
2023-03-17T12:45:09.070Z,249.99
2023-03-17T12:46:09.163Z,249.80
2023-03-17T12:47:09.042Z,249.92
2023-03-17T12:48:09.018Z,249.72
2023-03-17T12:49:09.037Z,249.77
2023-03-17T12:50:08.972Z,249.93
2023-03-17T12:51:08.985Z,249.78
2023-03-17T12:52:08.946Z,249.72
2023-03-17T12:53:08.867Z,249.78
2023-03-17T12:54:08.876Z,249.91
2023-03-17T12:55:08.841Z,249.58
2023-03-17T12:56:08.822Z,249.76
2023-03-17T12:57:08.790Z,249.77
2023-03-17T12:58:08.783Z,249.72
2023-03-17T12:59:08.766Z,249.55
2023-03-17T13:00:08.734Z,249.66
2023-03-17T13:01:08.915Z,249.76
2023-03-17T13:02:08.685Z,249.60
2023-03-17T13:03:08.711Z,249.58
2023-03-17T13:04:08.675Z,249.89
2023-03-17T13:05:08.647Z,249.42
2023-03-17T13:06:08.661Z,249.82
2023-03-17T13:07:08.669Z,249.74
2023-03-17T13:08:08.624Z,249.68
2023-03-17T13:09:08.625Z,249.67
2023-03-17T13:10:08.589Z,249.76
2023-03-17T13:11:08.559Z,249.60
2023-03-17T13:12:08.542Z,249.76
2023-03-17T13:13:08.531Z,249.99
2023-03-17T13:14:08.494Z,249.62
2023-03-17T13:15:08.468Z,249.46
2023-03-17T13:16:08.471Z,249.64
2023-03-17T13:17:08.434Z,249.44
2023-03-17T13:18:08.436Z,249.38
2023-03-17T13:19:08.400Z,249.42
2023-03-17T13:20:08.447Z,249.47
2023-03-17T13:21:08.364Z,249.49
2023-03-17T13:22:08.342Z,249.39
2023-03-17T13:23:08.341Z,249.23
2023-03-17T13:24:08.312Z,249.39
2023-03-17T13:25:08.284Z,248.95
2023-03-17T13:26:08.294Z,249.30
2023-03-17T13:27:08.254Z,248.76
2023-03-17T13:28:10.401Z,249.08
2023-03-17T13:29:08.208Z,248.76
2023-03-17T13:30:08.223Z,248.36
2023-03-17T13:31:08.201Z,248.66
2023-03-17T13:32:08.151Z,248.33
2023-03-17T13:33:08.273Z,248.41
2023-03-17T13:34:08.089Z,248.19
2023-03-17T13:35:08.099Z,248.06
2023-03-17T13:36:08.099Z,247.57
2023-03-17T13:37:08.044Z,247.12
2023-03-17T13:38:08.016Z,247.13
2023-03-17T13:39:18.781Z,247.04
2023-03-17T13:40:10.851Z,247.08
2023-03-17T13:41:07.964Z,247.20
2023-03-17T13:42:17.636Z,247.16
2023-03-17T13:43:08.920Z,247.12
2023-03-17T13:44:07.929Z,247.18
2023-03-17T13:45:07.861Z,247.24
2023-03-17T13:46:09.240Z,246.98
2023-03-17T13:47:07.837Z,246.63
2023-03-17T13:48:07.803Z,246.49
2023-03-17T13:49:07.803Z,246.18
2023-03-17T13:50:07.785Z,246.32
2023-03-17T13:51:07.744Z,246.04
2023-03-17T13:52:07.741Z,245.26
2023-03-17T13:53:07.706Z,245.42
2023-03-17T22:27:04.949Z,200.76
2023-03-17T22:28:04.925Z,200.91
2023-03-17T22:29:04.930Z,200.56
2023-03-17T22:30:04.979Z,200.12
2023-03-17T22:31:04.921Z,200.20
2023-03-17T22:32:04.970Z,200.31
2023-03-17T22:33:04.968Z,200.23
2023-03-17T22:34:04.918Z,200.75
2023-03-17T22:35:04.918Z,200.14
2023-03-17T22:36:04.961Z,199.60
2023-03-17T22:37:04.927Z,198.86
2023-03-17T22:38:04.924Z,199.53
2023-03-17T22:39:04.928Z,200.58
2023-03-17T22:40:04.921Z,199.26
2023-03-17T22:41:04.933Z,199.93
2023-03-17T22:42:04.942Z,199.31
2023-03-17T22:43:04.929Z,199.14
2023-03-17T22:44:04.935Z,199.62
2023-03-17T22:45:04.928Z,199.68
2023-03-17T22:46:05.111Z,199.62
2023-03-17T22:47:04.948Z,199.71
2023-03-17T22:48:04.928Z,199.45
2023-03-17T22:49:04.940Z,199.28
2023-03-17T22:50:04.924Z,198.55
2023-03-17T22:51:04.922Z,198.16
2023-03-17T22:52:04.928Z,198.62
2023-03-17T22:53:04.927Z,198.46
2023-03-17T22:54:04.961Z,198.03
2023-03-17T22:55:04.946Z,198.78
2023-03-17T22:56:04.972Z,198.76
2023-03-17T22:57:05.700Z,198.16
2023-03-17T22:58:04.956Z,198.51
2023-03-17T22:59:04.973Z,197.53
2023-03-17T23:00:04.936Z,198.27
2023-03-17T23:01:04.966Z,198.62
2023-03-17T23:02:04.966Z,197.52
2023-03-17T23:03:04.949Z,198.33
2023-03-17T23:04:04.941Z,197.73
2023-03-17T23:05:04.957Z,197.68
2023-03-17T23:06:04.947Z,197.63
2023-03-17T23:07:04.964Z,198.93
2023-03-17T23:08:04.977Z,197.17
2023-03-17T23:09:04.978Z,197.38
2023-03-17T23:10:04.950Z,198.69
2023-03-17T23:11:04.954Z,197.67
2023-03-17T23:12:04.940Z,196.84
2023-03-17T23:13:04.945Z,197.66
2023-03-17T23:14:04.932Z,197.89
2023-03-17T23:15:04.991Z,197.84
2023-03-17T23:16:04.942Z,197.32
2023-03-17T23:17:04.970Z,197.47
2023-03-17T23:18:04.919Z,196.96
2023-03-17T23:19:04.920Z,197.03
2023-03-17T23:20:04.926Z,197.10
2023-03-17T23:21:04.918Z,197.24
2023-03-17T23:22:04.924Z,197.34
2023-03-17T23:23:04.910Z,197.67
2023-03-17T23:24:04.929Z,196.69
2023-03-17T23:25:04.917Z,196.73
2023-03-17T23:26:04.913Z,196.97
2023-03-17T23:27:04.944Z,196.78
2023-03-17T23:28:04.908Z,197.48
2023-03-17T23:29:04.919Z,197.04
2023-03-17T23:30:04.910Z,195.99
2023-03-17T23:31:04.948Z,197.51
2023-03-17T23:32:04.944Z,196.90
2023-03-17T23:33:05.129Z,196.02
2023-03-17T23:34:04.923Z,195.84
2023-03-17T23:35:04.911Z,196.96
2023-03-17T23:36:04.910Z,195.65
2023-03-17T23:37:04.932Z,196.81
2023-03-17T23:38:04.927Z,195.53
2023-03-17T23:39:04.927Z,196.28
2023-03-17T23:40:04.997Z,195.26
2023-03-17T23:41:04.930Z,195.63
2023-03-17T23:42:04.953Z,196.50
2023-03-17T23:43:04.951Z,195.38
2023-03-17T23:44:04.932Z,196.49
2023-03-17T23:45:04.947Z,195.87
2023-03-17T23:46:04.966Z,195.18
2023-03-17T23:47:04.947Z,195.95
2023-03-17T23:48:04.945Z,196.99
2023-03-17T23:49:04.958Z,195.76
2023-03-17T23:50:04.952Z,194.82
2023-03-17T23:51:04.948Z,195.63
2023-03-17T23:52:04.941Z,196.06
2023-03-17T23:53:04.964Z,195.12
2023-03-17T23:54:04.961Z,195.11
2023-03-17T23:55:05.011Z,195.15
2023-03-17T23:56:04.990Z,195.27
2023-03-17T23:57:04.969Z,195.23
2023-03-17T23:58:04.994Z,195.36
2023-03-17T23:59:04.972Z,196.01
